PWSweather.com
Personal Weather Stations
Station Observations
NCCALABA57
The Farm, Calabash, NC 28467

The FarmCalabash, NC 28467

Lat: 33.9246539, Lon: -78.5696509

Elevation: 44

Station Type: Davis Vantage Pro 2

Latest ConditionsUpdated 2:30:00 PM EDT Saturday, Aug 24, 2019
Currently Today's Max Today's Min Today's Average
Temperature 86.0°F30.0°C 88.6°F31.4°C 73.1°F22.8°C 78.7°F25.9°C
Dew Point 77.5°F25.3°C 78.9°F26.1°C 71.7°F22.1°C 74.4°F23.6°C
Winds 4.6 mph SE7.4 kmh SE 4.6 mph -7.4 kmh - - 1.6 mph 2.6 kmh
Wind Gusts 6.9 mph11.1 kmh 8.1 mph13.0 kmh - -
Humidity 76% 96% 72% 87%
Pressure 30.07 in1018.3 mb 30.11 in1019.6 mb 30.03 in1016.9 mb -
Hour Temp Dew Point Humidity Winds Wind Gusts Pressure Precip Precip Rate Daily Precip Total
02:30 PM 86.0°F30.0°C 77.5°F25.3°C 76% 4.6 mph SE7.4 kmh SE 6.9 mph11.1 kmh 30.07 in1018.3 mb - 0.00 in0.0 mm 0.00 in0.0 mm
02:00 PM 88.6°F31.4°C 78.9°F26.1°C 73% 3.5 mph SE5.6 kmh SE 8.1 mph13.0 kmh 30.07 in1018.3 mb - 0.00 in0.0 mm 0.00 in0.0 mm
01:30 PM 87.5°F30.8°C 78.2°F25.7°C 74% 4.6 mph S7.4 kmh S 8.1 mph13.0 kmh 30.08 in1018.6 mb - 0.00 in0.0 mm 0.00 in0.0 mm
01:00 PM 88.2°F31.2°C 78.0°F25.6°C 72% 2.3 mph S3.7 kmh S 4.6 mph7.4 kmh 30.09 in1019.0 mb - 0.00 in0.0 mm 0.00 in0.0 mm
12:30 PM 86.4°F30.2°C 77.5°F25.3°C 75% 2.3 mph SE3.7 kmh SE 2.3 mph3.7 kmh 30.10 in1019.3 mb - 0.00 in0.0 mm 0.00 in0.0 mm
12:00 PM 84.3°F29.1°C 76.6°F24.8°C 78% 2.3 mph SSW3.7 kmh SSW 3.5 mph5.6 kmh 30.10 in1019.3 mb - 0.00 in0.0 mm 0.00 in0.0 mm
11:30 AM 82.5°F28.1°C 76.4°F24.7°C 82% 2.3 mph S3.7 kmh S 3.5 mph5.6 kmh 30.11 in1019.6 mb - 0.00 in0.0 mm 0.00 in0.0 mm
11:00 AM 83.4°F28.6°C 75.8°F24.3°C 78% 3.5 mph SSW5.6 kmh SSW 5.8 mph9.3 kmh 30.11 in1019.6 mb - 0.00 in0.0 mm 0.00 in0.0 mm
10:30 AM 83.1°F28.4°C 75.5°F24.2°C 78% 2.3 mph E3.7 kmh E 2.3 mph3.7 kmh 30.11 in1019.6 mb - 0.00 in0.0 mm 0.00 in0.0 mm
10:00 AM 83.7°F28.7°C 75.3°F24.1°C 76% 3.5 mph ENE5.6 kmh ENE 4.6 mph7.4 kmh 30.11 in1019.6 mb - 0.00 in0.0 mm 0.00 in0.0 mm
09:30 AM 82.3°F27.9°C 75.1°F23.9°C 79% 2.3 mph ENE3.7 kmh ENE 3.5 mph5.6 kmh 30.09 in1019.0 mb - 0.00 in0.0 mm 0.00 in0.0 mm
09:00 AM 81.2°F27.3°C 74.4°F23.6°C 80% 3.5 mph ENE5.6 kmh ENE 3.5 mph5.6 kmh 30.09 in1019.0 mb - 0.00 in0.0 mm 0.00 in0.0 mm
08:30 AM 78.9°F26.1°C 73.3°F22.9°C 83% 4.6 mph ENE7.4 kmh ENE 5.8 mph9.3 kmh 30.09 in1019.0 mb - 0.00 in0.0 mm 0.00 in0.0 mm
08:00 AM 76.6°F24.8°C 72.8°F22.7°C 88% Calm Calm -- 30.09 in1019.0 mb - 0.00 in0.0 mm 0.00 in0.0 mm
07:30 AM 74.4°F23.6°C 72.5°F22.5°C 94% 2.3 mph E3.7 kmh E 4.6 mph7.4 kmh 30.08 in1018.6 mb - 0.00 in0.0 mm 0.00 in0.0 mm
07:00 AM 73.3°F22.9°C 71.7°F22.1°C 95% 2.3 mph E3.7 kmh E 3.5 mph5.6 kmh 30.07 in1018.3 mb - 0.00 in0.0 mm 0.00 in0.0 mm
06:30 AM 73.1°F22.8°C 71.9°F22.2°C 96% Calm Calm -- 30.06 in1017.9 mb - 0.00 in0.0 mm 0.00 in0.0 mm
06:00 AM 73.1°F22.8°C 71.9°F22.2°C 96% Calm Calm -- 30.04 in1017.3 mb - 0.00 in0.0 mm 0.00 in0.0 mm
05:30 AM 73.6°F23.1°C 72.1°F22.3°C 95% Calm Calm -- 30.03 in1016.9 mb - 0.00 in0.0 mm 0.00 in0.0 mm
05:00 AM 74.0°F23.3°C 72.5°F22.5°C 95% Calm Calm -- 30.03 in1016.9 mb - 0.00 in0.0 mm 0.00 in0.0 mm
04:30 AM 74.3°F23.5°C 72.8°F22.7°C 95% Calm Calm -- 30.03 in1016.9 mb - 0.00 in0.0 mm 0.00 in0.0 mm
04:00 AM 74.2°F23.4°C 73.0°F22.8°C 96% 1.2 mph N1.9 kmh N 2.3 mph3.7 kmh 30.04 in1017.3 mb - 0.00 in0.0 mm 0.00 in0.0 mm
03:30 AM 74.1°F23.4°C 72.9°F22.7°C 96% Calm Calm -- 30.05 in1017.6 mb - 0.00 in0.0 mm 0.00 in0.0 mm
03:00 AM 74.0°F23.3°C 72.8°F22.7°C 96% Calm Calm 1.2 mph1.9 kmh 30.06 in1017.9 mb - 0.00 in0.0 mm 0.00 in0.0 mm
02:30 AM 74.5°F23.6°C 73.3°F22.9°C 96% Calm Calm -- 30.06 in1017.9 mb - 0.00 in0.0 mm 0.00 in0.0 mm
02:00 AM 74.9°F23.8°C 73.7°F23.2°C 96% Calm Calm -- 30.07 in1018.3 mb - 0.00 in0.0 mm 0.00 in0.0 mm
01:30 AM 75.0°F23.9°C 73.8°F23.2°C 96% Calm Calm -- 30.07 in1018.3 mb - 0.00 in0.0 mm 0.00 in0.0 mm
01:00 AM 75.1°F23.9°C 73.9°F23.3°C 96% Calm Calm -- 30.07 in1018.3 mb - 0.00 in0.0 mm 0.00 in0.0 mm
12:30 AM 75.0°F23.9°C 73.8°F23.2°C 96% Calm Calm -- 30.07 in1018.3 mb - 0.00 in0.0 mm 0.00 in0.0 mm
12:00 AM 75.3°F24.1°C 73.7°F23.2°C 95% Calm Calm -- 30.07 in1018.3 mb - 0.00 in0.0 mm 0.00 in0.0 mm